Time;durP1;ratioP1;P1;durP2;ratioP2;P2;SDS_P1;SDS_P2;PMS_P1;PMS_P2;Temp;Humidity;BMP_temperature;BMP_pressure;BME280_temperature;BME280_humidity;BME280_pressure;Samples;Min_cycle;Max_cycle;Signal;HPM_P1;HPM_P2
2021/10/11 00:02:33;;;;;;;12.60;9.63;;;4.70;99.90;;;;;;6193913;28;20027;-82
2021/10/11 00:05:34;;;;;;;15.02;10.65;;;;;;;;;;6161391;28;20373;-83
2021/10/11 00:08:35;;;;;;;15.23;10.68;;;4.30;99.90;;;;;;6193571;28;20032;-82
2021/10/11 00:11:36;;;;;;;15.35;10.02;;;;;;;;;;6177400;28;20030;-82
2021/10/11 00:14:36;;;;;;;16.98;10.85;;;4.80;99.90;;;;;;6177827;28;20041;-82
2021/10/11 00:17:37;;;;;;;15.98;11.20;;;4.40;99.90;;;;;;6176819;28;20117;-82
2021/10/11 00:20:37;;;;;;;15.57;11.48;;;4.30;99.90;;;;;;6193427;28;20023;-81
2021/10/11 00:23:38;;;;;;;15.23;11.30;;;4.50;99.90;;;;;;6177258;28;20449;-83
2021/10/11 00:26:39;;;;;;;15.18;10.52;;;4.70;99.90;;;;;;6193149;28;20057;-81
2021/10/11 00:29:40;;;;;;;15.50;10.77;;;;;;;;;;6193373;28;20417;-82
2021/10/11 00:32:41;;;;;;;13.77;10.88;;;;;;;;;;6194833;28;20030;-83
2021/10/11 00:35:42;;;;;;;11.60;10.07;;;4.90;99.90;;;;;;6193364;28;20030;-82
2021/10/11 00:38:43;;;;;;;14.65;9.98;;;;;;;;;;6193249;28;20038;-84
2021/10/11 00:41:43;;;;;;;16.42;11.43;;;4.80;99.90;;;;;;6193245;28;20026;-84
2021/10/11 00:44:44;;;;;;;16.48;10.90;;;;;;;;;;6176319;28;20069;-81
2021/10/11 00:47:45;;;;;;;15.63;10.90;;;;;;;;;;6177250;28;20021;-81
2021/10/11 00:50:47;;;;;;;15.00;10.77;;;4.70;99.90;;;;;;6193565;28;20489;-82
2021/10/11 00:53:47;;;;;;;13.95;9.88;;;4.60;99.90;;;;;;6176375;28;20034;-81
2021/10/11 00:56:49;;;;;;;12.60;9.20;;;4.60;99.90;;;;;;6160992;28;20077;-81
2021/10/11 00:59:49;;;;;;;16.13;10.45;;;4.60;99.90;;;;;;6176494;28;20054;-81
2021/10/11 01:02:50;;;;;;;17.65;10.57;;;;;;;;;;6193072;28;20604;-82
2021/10/11 01:05:51;;;;;;;16.58;10.27;;;4.30;99.90;;;;;;6176862;28;20022;-81
2021/10/11 01:08:52;;;;;;;14.50;11.18;;;;;;;;;;6176506;28;20030;-83
2021/10/11 01:11:53;;;;;;;12.82;9.93;;;;;;;;;;6176449;28;20128;-83
2021/10/11 01:14:54;;;;;;;14.85;10.60;;;4.20;99.90;;;;;;6194322;28;20018;-83
2021/10/11 01:17:54;;;;;;;15.10;10.15;;;;;;;;;;6192404;28;20385;-81
2021/10/11 01:20:55;;;;;;;14.27;10.43;;;;;;;;;;6176599;28;20137;-83
2021/10/11 01:23:56;;;;;;;13.50;10.45;;;;;;;;;;6192657;28;20465;-83
2021/10/11 01:26:57;;;;;;;15.15;10.02;;;;;;;;;;6192724;28;20018;-82
2021/10/11 01:29:58;;;;;;;12.38;9.02;;;4.50;99.90;;;;;;6195467;28;20027;-82
2021/10/11 01:32:59;;;;;;;13.82;9.90;;;4.60;99.90;;;;;;6180967;28;20112;-82
2021/10/11 01:35:59;;;;;;;14.93;10.70;;;4.20;99.90;;;;;;6197337;28;20081;-82
2021/10/11 01:39:01;;;;;;;16.23;9.77;;;4.50;99.90;;;;;;6196733;28;20453;-81
2021/10/11 01:42:02;;;;;;;16.13;10.40;;;4.40;99.90;;;;;;6164909;28;20023;-83
2021/10/11 01:45:04;;;;;;;13.40;10.45;;;4.40;99.90;;;;;;6196854;28;20065;-81
2021/10/11 01:48:05;;;;;;;13.88;9.57;;;4.30;99.90;;;;;;6180152;28;20087;-83
2021/10/11 01:51:05;;;;;;;12.98;9.80;;;4.30;99.90;;;;;;6180460;28;20472;-82
2021/10/11 01:54:06;;;;;;;13.77;10.43;;;4.40;99.90;;;;;;6196775;28;20132;-83
2021/10/11 01:57:06;;;;;;;14.77;10.13;;;4.30;99.90;;;;;;6196737;28;20038;-82
2021/10/11 02:00:08;;;;;;;13.15;9.65;;;4.20;99.90;;;;;;6196477;28;20024;-81
2021/10/11 02:03:08;;;;;;;15.73;11.02;;;4.20;99.90;;;;;;6196733;28;20381;-82
2021/10/11 02:06:09;;;;;;;15.02;10.45;;;4.50;99.90;;;;;;6196671;28;20030;-82
2021/10/11 02:09:10;;;;;;;15.18;10.30;;;;;;;;;;6197055;28;20467;-83
2021/10/11 02:12:11;;;;;;;15.90;10.02;;;;;;;;;;6180007;28;20710;-82
2021/10/11 02:15:11;;;;;;;15.20;10.27;;;3.90;99.90;;;;;;6196818;28;20057;-82
2021/10/11 02:18:12;;;;;;;12.02;9.73;;;;;;;;;;6196568;28;20038;-82
2021/10/11 02:21:13;;;;;;;15.35;9.85;;;;;;;;;;6196072;28;20021;-81
2021/10/11 02:24:14;;;;;;;16.20;11.00;;;4.00;99.90;;;;;;6197717;28;20425;-82
2021/10/11 02:27:15;;;;;;;16.10;10.48;;;;;;;;;;6195867;28;20018;-84
2021/10/11 02:30:15;;;;;;;12.98;8.98;;;4.00;99.90;;;;;;6197528;28;20031;-82
2021/10/11 02:33:16;;;;;;;17.05;10.60;;;;;;;;;;6195739;28;20690;-83
2021/10/11 02:36:17;;;;;;;15.70;10.10;;;;;;;;;;6195912;28;20034;-82
2021/10/11 02:39:18;;;;;;;14.02;9.55;;;3.90;99.90;;;;;;6179507;28;20057;-83
2021/10/11 02:42:19;;;;;;;13.65;10.30;;;3.80;99.90;;;;;;6179493;28;20153;-82
2021/10/11 02:45:19;;;;;;;13.38;9.88;;;3.90;99.90;;;;;;6179071;28;20113;-84
2021/10/11 02:48:20;;;;;;;15.18;10.43;;;4.00;99.90;;;;;;6195395;28;20144;-82
2021/10/11 02:51:21;;;;;;;13.13;8.93;;;4.20;99.90;;;;;;6178980;28;20034;-81
2021/10/11 02:54:21;;;;;;;11.80;8.95;;;4.30;99.90;;;;;;6195542;28;20081;-82
2021/10/11 02:57:22;;;;;;;14.20;9.73;;;;;;;;;;6179757;28;20030;-83
2021/10/11 03:00:23;;;;;;;17.63;11.10;;;;;;;;;;6195078;28;20140;-82
2021/10/11 03:03:24;;;;;;;13.85;9.63;;;4.00;99.90;;;;;;6195598;28;20022;-82
2021/10/11 03:06:25;;;;;;;15.77;9.02;;;4.00;99.90;;;;;;6178868;28;20106;-82
2021/10/11 03:09:25;;;;;;;15.77;10.07;;;;;;;;;;6162483;28;20050;-82
2021/10/11 03:12:26;;;;;;;14.10;9.50;;;3.80;99.90;;;;;;6178901;28;20085;-82
2021/10/11 03:15:27;;;;;;;13.55;9.35;;;4.30;99.90;;;;;;6162208;28;20040;-81
2021/10/11 03:18:27;;;;;;;13.13;9.50;;;3.90;99.90;;;;;;6178717;28;20457;-83
2021/10/11 03:21:28;;;;;;;16.42;9.95;;;4.30;99.90;;;;;;6194639;28;20030;-82
2021/10/11 03:24:28;;;;;;;13.50;9.05;;;3.70;99.90;;;;;;6194766;28;20058;-82
2021/10/11 03:27:29;;;;;;;14.32;9.48;;;4.10;99.90;;;;;;6194395;28;20086;-82
2021/10/11 03:30:31;;;;;;;15.38;10.00;;;3.80;99.90;;;;;;6194645;28;20022;-83
2021/10/11 03:33:31;;;;;;;13.70;10.30;;;4.20;99.90;;;;;;6178177;28;20121;-82
2021/10/11 03:36:33;;;;;;;12.50;9.65;;;3.80;99.90;;;;;;6194610;28;20034;-82
2021/10/11 03:39:34;;;;;;;16.23;10.10;;;;;;;;;;6178081;28;20037;-82
2021/10/11 03:42:35;;;;;;;13.85;10.10;;;3.70;99.90;;;;;;6178176;28;20285;-82
2021/10/11 03:45:35;;;;;;;13.80;9.10;;;4.70;99.90;;;;;;6194282;28;20400;-83
2021/10/11 03:48:36;;;;;;;14.73;9.85;;;3.60;99.90;;;;;;6194429;28;20022;-84
2021/10/11 03:51:36;;;;;;;13.20;9.90;;;4.90;99.90;;;;;;6177259;28;20053;-84
2021/10/11 03:54:37;;;;;;;13.77;9.55;;;4.60;99.90;;;;;;6193904;28;20042;-83
2021/10/11 03:57:38;;;;;;;14.85;9.95;;;3.60;99.90;;;;;;6161820;28;20038;-82
2021/10/11 04:00:39;;;;;;;14.32;9.95;;;;;;;;;;6177666;28;20030;-83
2021/10/11 04:03:40;;;;;;;13.73;8.77;;;3.20;99.90;;;;;;6193925;28;20014;-83
2021/10/11 04:06:41;;;;;;;13.35;9.77;;;;;;;;;;6177822;28;20420;-81
2021/10/11 04:09:43;;;;;;;13.30;9.73;;;3.60;99.90;;;;;;6193440;28;20049;-83
2021/10/11 04:12:47;;;;;;;19.17;9.95;;;3.70;99.90;;;;;;6193784;28;20208;-81
2021/10/11 04:15:48;;;;;;;14.35;10.05;;;3.40;99.90;;;;;;6177038;28;20050;-81
2021/10/11 04:18:49;;;;;;;15.20;9.48;;;3.40;99.90;;;;;;6193756;28;20065;-81
2021/10/11 04:21:49;;;;;;;14.05;9.25;;;3.40;99.90;;;;;;6177320;28;20035;-83
2021/10/11 04:24:50;;;;;;;15.15;10.48;;;3.70;99.90;;;;;;6193418;28;20026;-81
2021/10/11 04:27:51;;;;;;;14.93;10.43;;;;;;;;;;6193664;28;20066;-84
2021/10/11 04:30:51;;;;;;;14.93;10.20;;;3.30;99.90;;;;;;6193086;28;20038;-83
2021/10/11 04:33:52;;;;;;;16.70;10.52;;;3.20;99.90;;;;;;6176347;28;20384;-83
2021/10/11 04:36:53;;;;;;;14.45;10.40;;;;;;;;;;6193075;28;20029;-83
2021/10/11 04:39:54;;;;;;;19.42;12.35;;;;;;;;;;6193617;28;20108;-82
2021/10/11 04:42:55;;;;;;;13.30;10.20;;;;;;;;;;6176415;28;20385;-84
2021/10/11 04:45:56;;;;;;;14.50;11.65;;;;;;;;;;6193272;28;20030;-83
2021/10/11 04:48:57;;;;;;;14.50;9.63;;;;;;;;;;6177041;28;20117;-82
2021/10/11 04:51:58;;;;;;;17.25;9.75;;;;;;;;;;6193865;28;20047;-82
2021/10/11 04:54:58;;;;;;;13.60;10.25;;;3.40;99.90;;;;;;6194235;28;20083;-82
2021/10/11 04:58:00;;;;;;;13.82;9.98;;;3.50;99.90;;;;;;6193114;28;20457;-81
2021/10/11 05:01:01;;;;;;;12.87;10.80;;;4.80;99.90;;;;;;6177006;28;20357;-82
2021/10/11 05:04:01;;;;;;;14.65;10.15;;;4.40;99.90;;;;;;6196347;28;20117;-82
2021/10/11 05:07:02;;;;;;;17.10;10.98;;;4.20;99.90;;;;;;6198460;28;20088;-82
2021/10/11 05:10:04;;;;;;;14.68;10.35;;;3.30;99.90;;;;;;6181093;28;20105;-84
2021/10/11 05:13:04;;;;;;;14.43;10.73;;;3.20;99.90;;;;;;6181148;28;20034;-83
2021/10/11 05:16:11;;;;;;;15.85;9.50;;;4.00;99.90;;;;;;6197671;28;20673;-81
2021/10/11 05:19:11;;;;;;;14.20;10.40;;;4.10;99.90;;;;;;6181557;28;20018;-83
2021/10/11 05:22:12;;;;;;;14.95;10.20;;;4.00;99.90;;;;;;6197125;28;20042;-83
2021/10/11 05:25:13;;;;;;;18.10;11.90;;;4.30;99.90;;;;;;6198064;28;20030;-82
2021/10/11 05:28:13;;;;;;;17.90;12.88;;;3.40;99.90;;;;;;6181170;28;20053;-84
2021/10/11 05:31:14;;;;;;;40.92;20.27;;;3.80;99.90;;;;;;6181147;28;20129;-86
2021/10/11 05:34:14;;;;;;;21.17;14.93;;;3.40;99.90;;;;;;6198065;28;20457;-85
2021/10/11 05:37:15;;;;;;;20.50;14.32;;;;;;;;;;6180809;28;20676;-85
2021/10/11 05:40:16;;;;;;;14.52;11.80;;;3.30;99.90;;;;;;6181474;28;20022;-83
2021/10/11 05:43:17;;;;;;;23.52;15.23;;;4.60;99.90;;;;;;6180273;28;20498;-84
2021/10/11 05:46:17;;;;;;;32.47;19.00;;;3.40;99.90;;;;;;6181449;28;20030;-84
2021/10/11 05:49:18;;;;;;;17.08;12.65;;;4.10;99.90;;;;;;6180558;28;20045;-83
2021/10/11 05:52:18;;;;;;;18.55;11.52;;;3.70;99.90;;;;;;6180081;28;20165;-86
2021/10/11 05:55:19;;;;;;;13.40;10.32;;;3.60;99.90;;;;;;6197427;28;20076;-84
2021/10/11 05:58:20;;;;;;;14.93;10.20;;;3.80;99.90;;;;;;6180449;28;20031;-85
2021/10/11 06:01:20;;;;;;;14.75;10.50;;;;;;;;;;6180484;28;20054;-85
2021/10/11 06:04:21;;;;;;;15.25;11.70;;;3.60;99.90;;;;;;6180636;28;20459;-82
2021/10/11 06:07:22;;;;;;;21.73;17.00;;;3.90;99.90;;;;;;6180878;28;20022;-84
2021/10/11 06:10:23;;;;;;;15.23;12.02;;;;;;;;;;6196894;28;20034;-83
2021/10/11 06:13:23;;;;;;;13.13;10.25;;;3.50;99.90;;;;;;6180327;28;20025;-84
2021/10/11 06:16:24;;;;;;;15.63;10.43;;;3.40;99.90;;;;;;6177701;28;20473;-83
2021/10/11 06:19:25;;;;;;;15.02;10.70;;;3.70;99.90;;;;;;6177105;28;20156;-82
2021/10/11 06:22:25;;;;;;;17.63;11.30;;;4.20;99.90;;;;;;6177377;28;20088;-82
2021/10/11 06:25:26;;;;;;;16.25;10.90;;;4.10;99.90;;;;;;6194365;28;20038;-85
2021/10/11 06:28:27;;;;;;;16.38;11.90;;;3.50;99.90;;;;;;6179953;28;20022;-82
2021/10/11 06:31:27;;;;;;;15.52;12.57;;;4.70;99.90;;;;;;6196127;28;20053;-88
2021/10/11 06:34:28;;;;;;;20.33;11.30;;;;;;;;;;6195884;28;20034;-86
2021/10/11 06:37:29;;;;;;;16.52;11.48;;;3.90;99.90;;;;;;6179483;28;20038;-85
2021/10/11 06:40:30;;;;;;;15.38;11.02;;;4.90;99.90;;;;;;6179831;28;20417;-84
2021/10/11 06:43:30;;;;;;;16.80;10.77;;;4.70;99.90;;;;;;6179216;28;20133;-83
2021/10/11 06:46:31;;;;;;;14.75;10.38;;;5.00;99.90;;;;;;6179726;28;20511;-83
2021/10/11 06:49:32;;;;;;;15.25;10.23;;;;;;;;;;6179172;28;20046;-84
2021/10/11 06:52:33;;;;;;;14.15;10.38;;;5.10;99.90;;;;;;6196706;28;20449;-82
2021/10/11 06:55:34;;;;;;;15.15;9.30;;;;;;;;;;6195853;28;20030;-83
2021/10/11 06:58:35;;;;;;;12.27;9.05;;;;;;;;;;6179533;28;20034;-82
2021/10/11 07:01:35;;;;;;;13.30;10.18;;;7.10;99.90;;;;;;6179761;28;20036;-85
2021/10/11 07:04:36;;;;;;;13.20;9.30;;;;;;;;;;6179418;28;20444;-85
2021/10/11 07:07:39;;;;;;;10.45;8.07;;;8.60;99.90;;;;;;6179536;28;20065;-83
2021/10/11 07:10:40;;;;;;;12.05;8.25;;;9.40;99.90;;;;;;6178821;28;20049;-84
2021/10/11 07:13:41;;;;;;;11.98;9.07;;;;;;;;;;6179221;28;20112;-83
2021/10/11 07:16:42;;;;;;;11.98;8.10;;;10.10;99.90;;;;;;6178821;28;20038;-84
2021/10/11 07:19:46;;;;;;;13.07;8.70;;;10.80;99.90;;;;;;6178896;28;20585;-84
2021/10/11 07:22:46;;;;;;;14.40;8.73;;;11.10;99.90;;;;;;6178727;28;20030;-90
2021/10/11 07:25:47;;;;;;;11.98;8.75;;;11.20;99.90;;;;;;6162700;28;20049;-86
2021/10/11 07:28:48;;;;;;;11.13;7.93;;;;;;;;;;6178526;28;20118;-85
2021/10/11 07:31:49;;;;;;;16.45;9.00;;;11.50;99.90;;;;;;6193846;28;20487;-87
2021/10/11 07:34:50;;;;;;;11.55;8.77;;;;;;;;;;6162106;28;20150;-84
2021/10/11 07:37:50;;;;;;;13.50;7.95;;;12.10;99.90;;;;;;6178555;28;20022;-87
2021/10/11 07:40:52;;;;;;;11.38;7.78;;;12.50;99.90;;;;;;6161860;28;20080;-85
2021/10/11 07:43:52;;;;;;;15.07;8.13;;;12.70;99.90;;;;;;6161849;28;20054;-84
2021/10/11 07:46:54;;;;;;;10.55;8.10;;;13.00;99.90;;;;;;6178212;28;20465;-85
2021/10/11 07:49:55;;;;;;;13.13;7.75;;;;;;;;;;6162238;28;20037;-86
2021/10/11 07:52:56;;;;;;;11.05;8.23;;;;;;;;;;6178491;28;20034;-86
2021/10/11 07:55:57;;;;;;;9.35;7.22;;;14.20;98.00;;;;;;6177825;28;20038;-84
2021/10/11 07:58:58;;;;;;;11.07;8.35;;;14.10;99.90;;;;;;6177023;28;20089;-85
2021/10/11 08:01:59;;;;;;;13.02;8.13;;;;;;;;;;6162290;28;20027;-86
2021/10/11 08:04:59;;;;;;;10.25;6.65;;;14.80;99.90;;;;;;6176856;28;20026;-85
2021/10/11 08:08:00;;;;;;;9.80;7.25;;;15.20;99.90;;;;;;6193646;28;20382;-85
2021/10/11 08:11:01;;;;;;;10.13;7.07;;;15.20;99.90;;;;;;6193150;28;20050;-83
2021/10/11 08:14:02;;;;;;;10.40;7.38;;;15.40;99.90;;;;;;6178518;28;20102;-84
2021/10/11 08:17:03;;;;;;;12.10;7.40;;;15.40;99.90;;;;;;6177026;28;20034;-83
2021/10/11 08:20:05;;;;;;;10.75;7.65;;;15.20;99.90;;;;;;6178211;28;20468;-83
2021/10/11 08:23:06;;;;;;;9.00;7.15;;;15.50;99.90;;;;;;6177455;28;20405;-82
2021/10/11 08:26:10;;;;;;;15.02;9.05;;;16.20;99.90;;;;;;6193414;28;20105;-81
2021/10/11 08:29:12;;;;;;;9.95;7.82;;;16.10;97.90;;;;;;6160717;28;20113;-83
2021/10/11 08:32:12;;;;;;;8.95;7.70;;;16.40;99.90;;;;;;6177324;28;20045;-84
2021/10/11 08:35:13;;;;;;;10.93;8.00;;;;;;;;;;6177194;28;20468;-83
2021/10/11 08:38:14;;;;;;;10.35;8.35;;;16.80;99.80;;;;;;6192921;28;20038;-84
2021/10/11 08:41:15;;;;;;;13.10;8.52;;;;;;;;;;6177287;28;20038;-82
2021/10/11 08:44:15;;;;;;;10.52;8.52;;;16.60;95.80;;;;;;6176908;28;20057;-85
2021/10/11 08:47:16;;;;;;;9.38;7.75;;;17.10;96.40;;;;;;6177717;28;20034;-82
2021/10/11 08:50:17;;;;;;;12.73;8.48;;;17.00;91.10;;;;;;6196941;28;20469;-82
2021/10/11 08:53:17;;;;;;;9.00;7.82;;;17.00;90.20;;;;;;6195563;28;20130;-83
2021/10/11 08:56:18;;;;;;;10.65;7.78;;;17.10;90.80;;;;;;6193881;28;20380;-82
2021/10/11 08:59:28;;;;;;;9.88;8.02;;;17.20;91.20;;;;;;6192688;28;20054;-84
2021/10/11 09:02:28;;;;;;;12.45;9.00;;;18.40;90.40;;;;;;6176970;28;20038;-82
2021/10/11 09:05:33;;;;;;;12.05;10.10;;;19.60;86.10;;;;;;6176732;28;20365;-83
2021/10/11 09:08:35;;;;;;;14.93;12.55;;;19.60;87.00;;;;;;6176861;28;20127;-82
2021/10/11 09:11:36;;;;;;;20.98;13.10;;;20.20;84.70;;;;;;6176874;28;20030;-82
2021/10/11 09:14:37;;;;;;;15.48;12.75;;;20.50;84.00;;;;;;6193446;28;20050;-81
2021/10/11 09:17:42;;;;;;;18.92;13.88;;;20.60;83.10;;;;;;6192140;28;20152;-83
2021/10/11 09:20:43;;;;;;;17.45;12.30;;;20.60;79.90;;;;;;6194363;28;20030;-81
2021/10/11 09:23:43;;;;;;;15.93;12.45;;;20.70;78.20;;;;;;6176169;28;20122;-82
2021/10/11 09:26:54;;;;;;;17.45;13.10;;;20.20;78.30;;;;;;6176443;28;20398;-82
2021/10/11 09:29:54;;;;;;;15.55;12.73;;;20.00;79.00;;;;;;6192452;28;20034;-84
2021/10/11 09:33:17;;;;;;;18.65;12.80;;;19.60;81.10;;;;;;6192135;28;20061;-83
2021/10/11 09:36:21;;;;;;;15.48;12.40;;;19.60;77.50;;;;;;6176487;28;20074;-82
2021/10/11 09:39:26;;;;;;;12.45;11.15;;;19.10;84.20;;;;;;6191868;28;20038;-81
2021/10/11 09:42:28;;;;;;;13.18;10.32;;;18.50;83.90;;;;;;6176096;28;20030;-86
2021/10/11 09:45:29;;;;;;;13.55;10.27;;;;;;;;;;6176279;28;20050;-84
2021/10/11 09:48:29;;;;;;;14.63;11.00;;;18.20;84.10;;;;;;6176311;28;20030;-83
2021/10/11 09:51:30;;;;;;;19.92;12.73;;;18.10;88.70;;;;;;6196190;28;20042;-83
2021/10/11 09:54:30;;;;;;;16.90;11.73;;;18.20;90.20;;;;;;6180942;28;20492;-85
2021/10/11 09:57:31;;;;;;;16.90;12.32;;;18.40;88.00;;;;;;6180184;28;20449;-84
2021/10/11 10:00:32;;;;;;;17.95;12.10;;;18.90;89.20;;;;;;6196760;28;20027;-85
2021/10/11 10:03:34;;;;;;;14.63;12.32;;;18.80;88.80;;;;;;6179894;28;20038;-83
2021/10/11 10:06:34;;;;;;;19.63;12.10;;;19.00;87.80;;;;;;6180650;28;20516;-83
2021/10/11 10:09:39;;;;;;;16.48;13.02;;;18.80;94.60;;;;;;6195983;28;20022;-85
2021/10/11 10:12:44;;;;;;;18.50;13.68;;;18.70;83.50;;;;;;6179767;28;20080;-84
2021/10/11 10:15:45;;;;;;;17.00;13.85;;;18.70;85.70;;;;;;6179562;28;20035;-82
2021/10/11 10:18:46;;;;;;;20.05;13.90;;;18.60;86.80;;;;;;6179351;28;20594;-83
2021/10/11 10:21:47;;;;;;;17.13;13.88;;;18.80;85.00;;;;;;6179513;28;20023;-84
2021/10/11 10:24:47;;;;;;;22.00;14.88;;;18.80;85.00;;;;;;6179073;28;20037;-84
2021/10/11 10:27:50;;;;;;;17.88;14.82;;;18.90;86.20;;;;;;6179980;28;20026;-83
2021/10/11 10:31:01;;;;;;;19.58;14.25;;;20.10;85.60;;;;;;6179473;28;20129;-81
2021/10/11 10:34:23;;;;;;;18.17;14.23;;;18.90;83.30;;;;;;6179930;28;20034;-82
2021/10/11 10:37:33;;;;;;;17.27;13.75;;;18.80;84.70;;;;;;6194820;28;20373;-86
2021/10/11 10:40:34;;;;;;;21.30;14.20;;;18.50;85.30;;;;;;6195395;28;20376;-85
2021/10/11 10:43:38;;;;;;;18.88;13.55;;;18.30;87.00;;;;;;6178809;28;20047;-84
2021/10/11 10:47:09;;;;;;;17.60;14.52;;;18.20;87.40;;;;;;6195327;28;20034;-84
2021/10/11 10:50:15;;;;;;;18.15;14.60;;;18.00;87.60;;;;;;6169743;28;20257;-85
2021/10/11 10:53:16;;;;;;;16.95;13.90;;;18.20;97.30;;;;;;6169725;28;20045;-83
2021/10/11 10:56:17;;;;;;;15.70;12.60;;;18.20;89.30;;;;;;6137386;28;20126;-83
2021/10/11 10:59:23;;;;;;;15.45;10.23;;;18.50;88.50;;;;;;6136485;28;20043;-82
2021/10/11 11:02:24;;;;;;;18.70;13.15;;;18.50;83.90;;;;;;6168897;28;20496;-83
2021/10/11 11:05:26;;;;;;;19.10;14.02;;;18.60;85.50;;;;;;6153225;28;20033;-83
2021/10/11 11:08:26;;;;;;;18.27;13.63;;;18.40;87.20;;;;;;6152999;28;20026;-83
2021/10/11 11:11:28;;;;;;;19.05;14.80;;;18.20;88.20;;;;;;6137369;28;20034;-84
2021/10/11 11:14:29;;;;;;;19.17;13.70;;;;;;;;;;6168857;28;20535;-82
2021/10/11 11:17:35;;;;;;;18.98;14.20;;;18.40;86.50;;;;;;6169214;28;20477;-83
2021/10/11 11:20:37;;;;;;;19.80;14.00;;;18.30;87.90;;;;;;6168636;28;20035;-83
2021/10/11 11:23:43;;;;;;;17.77;13.60;;;18.40;88.00;;;;;;6152865;28;20483;-82
2021/10/11 11:26:45;;;;;;;15.57;12.57;;;18.50;88.70;;;;;;6153541;28;20089;-82
2021/10/11 11:29:52;;;;;;;;;;;18.60;88.50;;;;;;6195103;28;20031;-85
2021/10/11 11:32:54;;;;;;;17.15;12.55;;;18.60;87.00;;;;;;6178185;28;19924;-82
2021/10/11 11:35:56;;;;;;;16.05;11.23;;;18.60;86.40;;;;;;6178298;28;20773;-84
2021/10/11 11:38:56;;;;;;;14.77;11.00;;;18.60;88.50;;;;;;6177920;28;20022;-82
2021/10/11 11:41:57;;;;;;;20.42;13.52;;;18.60;89.00;;;;;;6194505;28;20033;-83
2021/10/11 11:44:57;;;;;;;22.15;13.73;;;18.60;88.00;;;;;;6177993;28;20140;-83
2021/10/11 11:48:03;;;;;;;22.25;12.73;;;19.20;89.60;;;;;;6194539;28;20065;-85
2021/10/11 11:51:07;;;;;;;14.52;11.82;;;18.90;85.00;;;;;;6194223;28;20453;-83
2021/10/11 11:54:16;;;;;;;16.25;12.63;;;18.80;87.00;;;;;;6193796;28;20157;-82
2021/10/11 11:57:16;;;;;;;15.38;12.73;;;18.90;87.30;;;;;;6177791;28;20056;-82
2021/10/11 12:00:17;;;;;;;17.17;13.30;;;18.70;95.50;;;;;;6177354;28;20037;-82
2021/10/11 12:03:18;;;;;;;15.55;12.70;;;;;;;;;;6194585;28;20052;-85
2021/10/11 12:06:19;;;;;;;17.42;13.80;;;;;;;;;;6177329;28;20149;-82
2021/10/11 12:09:23;;;;;;;17.52;13.70;;;18.30;99.90;;;;;;6177667;28;20469;-83
2021/10/11 12:12:32;;;;;;;20.02;14.05;;;18.20;99.50;;;;;;6192808;28;20049;-85
2021/10/11 12:15:33;;;;;;;20.48;15.38;;;18.10;99.90;;;;;;6192962;28;20035;-88
2021/10/11 12:18:38;;;;;;;21.58;15.40;;;18.00;99.90;;;;;;6176191;28;20130;-82
2021/10/11 12:21:39;;;;;;;17.75;11.63;;;17.80;99.90;;;;;;6194916;28;20026;-84
2021/10/11 12:24:40;;;;;;;14.38;11.70;;;;;;;;;;6176795;28;20038;-84
2021/10/11 12:27:41;;;;;;;14.27;12.23;;;17.90;94.00;;;;;;6176239;28;20035;-83
2021/10/11 12:30:43;;;;;;;18.00;13.23;;;17.60;90.20;;;;;;6193554;28;20034;-82
2021/10/11 12:33:44;;;;;;;16.55;12.30;;;17.30;90.20;;;;;;6177071;28;20050;-84
2021/10/11 12:36:49;;;;;;;16.98;12.25;;;17.30;91.50;;;;;;6192014;28;20030;-83
2021/10/11 12:39:52;;;;;;;19.63;13.20;;;17.30;91.80;;;;;;6192804;28;20049;-84
2021/10/11 12:42:53;;;;;;;17.02;12.07;;;16.90;91.60;;;;;;6176323;28;20085;-83
2021/10/11 12:46:07;;;;;;;20.10;14.07;;;17.00;92.30;;;;;;6193019;28;20061;-84
2021/10/11 12:49:07;;;;;;;16.80;12.18;;;17.10;92.40;;;;;;6192866;28;20030;-83
2021/10/11 12:52:08;;;;;;;13.15;11.10;;;16.90;93.00;;;;;;6176170;28;21541;-84
2021/10/11 12:55:12;;;;;;;17.58;11.75;;;16.90;93.10;;;;;;6177097;28;20018;-85
2021/10/11 12:58:13;;;;;;;15.38;11.07;;;17.20;92.00;;;;;;6192910;28;20018;-84
2021/10/11 13:01:14;;;;;;;15.95;11.43;;;;;;;;;;6193492;28;20034;-84
2021/10/11 13:04:15;;;;;;;18.10;10.80;;;17.20;91.70;;;;;;6177228;28;20033;-87
2021/10/11 13:07:18;;;;;;;14.10;10.38;;;17.10;92.00;;;;;;6176460;28;20105;-83
2021/10/11 13:10:19;;;;;;;13.18;10.98;;;17.00;91.90;;;;;;6176761;28;20049;-84
2021/10/11 13:13:19;;;;;;;13.48;9.80;;;17.10;92.40;;;;;;6192813;28;20034;-85
2021/10/11 13:16:20;;;;;;;15.18;11.02;;;17.00;92.80;;;;;;6193262;28;20029;-84
2021/10/11 13:19:20;;;;;;;14.05;11.13;;;16.90;99.90;;;;;;6175841;28;20026;-84
2021/10/11 13:22:22;;;;;;;14.13;11.48;;;16.90;93.00;;;;;;6192962;28;20073;-84
2021/10/11 13:25:22;;;;;;;16.58;11.13;;;17.00;93.70;;;;;;6195805;28;20054;-83
2021/10/11 13:28:23;;;;;;;17.42;11.55;;;17.10;93.20;;;;;;6181019;28;20030;-84
2021/10/11 15:59:54;;;;;;;23.90;15.45;;;13.40;99.90;;;;;;6193451;28;20372;-87
2021/10/11 16:03:03;;;;;;;25.23;16.42;;;13.40;99.90;;;;;;6177845;28;20022;-87
2021/10/11 16:06:04;;;;;;;22.45;16.75;;;13.30;99.90;;;;;;6177393;28;20073;-86
2021/10/11 16:09:05;;;;;;;20.60;16.60;;;;;;;;;;6193492;28;20465;-85
2021/10/11 16:12:06;;;;;;;23.70;17.20;;;13.20;99.90;;;;;;6176968;28;20469;-84
2021/10/11 16:15:08;;;;;;;20.80;15.82;;;13.10;99.90;;;;;;6193445;28;20064;-85
2021/10/11 16:18:08;;;;;;;21.88;15.93;;;13.10;99.90;;;;;;6159521;28;20038;-84
2021/10/11 16:21:09;;;;;;;25.95;19.13;;;13.00;99.90;;;;;;6191491;28;20732;-84
2021/10/11 16:24:10;;;;;;;26.98;17.83;;;13.00;99.90;;;;;;6177200;28;20366;-86
2021/10/11 16:27:10;;;;;;;22.92;17.33;;;13.00;99.90;;;;;;6176763;28;20038;-86
2021/10/11 16:30:11;;;;;;;31.33;18.70;;;12.70;99.90;;;;;;6193733;28;20018;-84
2021/10/11 16:33:12;;;;;;;22.45;17.67;;;12.70;99.90;;;;;;6176462;28;20057;-85
2021/10/11 16:36:13;;;;;;;21.88;17.73;;;12.60;99.90;;;;;;6177003;28;20030;-85
2021/10/11 16:39:13;;;;;;;28.45;19.75;;;12.70;99.90;;;;;;6176631;28;20045;-87
2021/10/11 16:42:14;;;;;;;28.00;19.67;;;12.50;99.90;;;;;;6193078;28;20034;-84
2021/10/11 16:45:15;;;;;;;32.63;20.95;;;12.50;99.90;;;;;;6193221;28;20042;-85
2021/10/11 16:48:16;;;;;;;34.05;23.02;;;;;;;;;;6176855;28;20054;-84
2021/10/11 16:51:16;;;;;;;24.90;20.50;;;12.40;99.90;;;;;;6177069;28;20022;-85
2021/10/11 16:54:21;;;;;;;30.70;21.15;;;12.30;99.90;;;;;;6192991;28;20038;-84
2021/10/11 16:57:23;;;;;;;29.67;21.08;;;12.10;99.90;;;;;;6177803;28;20045;-83
2021/10/11 17:00:30;;;;;;;28.58;21.23;;;12.10;99.90;;;;;;6180331;28;20023;-84
2021/10/11 17:03:30;;;;;;;30.30;23.08;;;12.00;99.90;;;;;;6181031;28;20042;-88
2021/10/11 17:06:31;;;;;;;29.67;22.55;;;12.10;99.90;;;;;;6207713;28;20461;-85
2021/10/11 17:09:32;;;;;;;31.38;22.55;;;12.00;99.90;;;;;;6184527;28;20148;-83
2021/10/11 17:12:34;;;;;;;25.02;20.42;;;12.00;99.90;;;;;;6195952;28;20132;-81
2021/10/11 17:15:34;;;;;;;30.15;20.95;;;11.80;99.90;;;;;;6197329;28;20057;-85
2021/10/11 17:18:36;;;;;;;30.55;22.17;;;;;;;;;;6180245;28;20453;-83
2021/10/11 17:21:37;;;;;;;33.42;23.27;;;11.70;99.90;;;;;;6181265;28;20101;-84
2021/10/11 17:24:38;;;;;;;30.63;21.42;;;;;;;;;;6197776;28;20039;-85
2021/10/11 17:27:39;;;;;;;28.77;20.83;;;11.60;99.90;;;;;;6181089;28;20432;-85
2021/10/11 17:30:40;;;;;;;29.23;22.27;;;;;;;;;;6181380;28;20938;-82
2021/10/11 17:33:41;;;;;;;31.60;20.98;;;11.50;99.90;;;;;;6196650;28;20464;-83
2021/10/11 17:36:42;;;;;;;31.20;20.90;;;11.50;99.90;;;;;;6181578;28;20037;-84
2021/10/11 17:39:44;;;;;;;27.35;19.23;;;11.40;99.90;;;;;;6197300;28;20030;-84
2021/10/11 17:42:44;;;;;;;28.50;20.10;;;11.10;99.90;;;;;;6181430;28;20026;-87
2021/10/11 17:45:45;;;;;;;23.75;17.65;;;;;;;;;;6181346;28;20069;-87
2021/10/11 17:48:46;;;;;;;28.95;19.48;;;11.00;99.90;;;;;;6197898;28;20065;-85
2021/10/11 17:51:47;;;;;;;24.35;17.95;;;11.20;99.90;;;;;;6181518;28;20441;-85
2021/10/11 17:54:48;;;;;;;25.33;17.95;;;;;;;;;;6181398;28;20120;-84
2021/10/11 17:57:49;;;;;;;32.78;18.50;;;11.00;99.90;;;;;;6175791;28;20026;-85
2021/10/11 18:00:49;;;;;;;27.17;17.60;;;11.20;99.90;;;;;;6180529;28;20089;-86
2021/10/11 18:03:50;;;;;;;25.33;18.45;;;;;;;;;;6181631;28;20026;-89
2021/10/11 18:06:54;;;;;;;28.15;18.27;;;11.00;99.90;;;;;;6184512;28;20032;-88
2021/10/11 18:10:14;;;;;;;25.77;18.42;;;11.10;99.90;;;;;;6184527;28;20046;-85
2021/10/11 18:13:15;;;;;;;26.52;18.55;;;11.00;99.90;;;;;;6179644;28;20065;-82
2021/10/11 18:16:16;;;;;;;21.85;17.70;;;;;;;;;;6196901;28;20035;-88
2021/10/11 18:19:17;;;;;;;31.58;24.08;;;;;;;;;;6196417;28;20114;-86
2021/10/11 18:22:18;;;;;;;38.00;25.95;;;;;;;;;;6180541;28;20023;-86
2021/10/11 18:25:19;;;;;;;49.50;33.72;;;10.90;99.90;;;;;;6180119;28;20487;-84